Janika — V2YK9 — position and weather

sailwx.info

Track history (hours):
 
Tides and Currents Weather Stations Pressure Air Temp Water Temp Dewpoint Dewpoint Depression Visibility Wind Speed Wind Dir Waves Ship Positions

Janika

Last reported at 2014-Oct-30 21:18 UTC. Time now 2014-Nov-01 13:20 UTC.
Position N 17°10' W 061°47'.

; draft 2.6 m.

Type: Tug. MMSI: 305732000.

Date/timePositionNaut miles runAvg speedWind from/ knotsBaromVisibWave heightAir tempDewpointWater temp
2014-Oct-30 21:18N 17°10' W 061°47'3 3.6
2014-Oct-30 20:33N 17°07' W 061°46'0 0.0
2014-Oct-30 19:33N 17°07' W 061°46'0 0.0
2014-Oct-30 18:33N 17°07' W 061°46'0 0.0
2014-Oct-30 17:33N 17°07' W 061°46'  
2014-Oct-25 14:33N 17°08' W 061°46'1 0.7
2014-Oct-25 13:34N 17°07' W 061°46'0 0.0
2014-Oct-25 12:33N 17°07' W 061°46'0 0.0
2014-Oct-25 11:33N 17°07' W 061°46'0 0.0
2014-Oct-25 10:34N 17°07' W 061°46'0 0.0
2014-Oct-25 09:33N 17°07' W 061°46'0 0.0
2014-Oct-25 08:34N 17°07' W 061°46'0 0.0
2014-Oct-25 07:33N 17°07' W 061°46'0 0.0
2014-Oct-25 06:33N 17°07' W 061°46'0 0.0
2014-Oct-25 05:33N 17°07' W 061°46'0 0.0
2014-Oct-25 04:33N 17°07' W 061°46'0 0.0
2014-Oct-25 03:33N 17°07' W 061°46'0 0.0
2014-Oct-25 02:33N 17°07' W 061°46'0 0.0
2014-Oct-25 01:33N 17°07' W 061°46'0 0.0
2014-Oct-25 00:33N 17°07' W 061°46'0 0.0
2014-Oct-24 23:33N 17°07' W 061°46'0 0.0
2014-Oct-24 22:33N 17°07' W 061°46'0 0.0
2014-Oct-24 21:33N 17°07' W 061°46'0 0.0
2014-Oct-24 20:33N 17°07' W 061°46'0 0.0
2014-Oct-24 19:33N 17°07' W 061°46'0 0.0
2014-Oct-24 18:33N 17°07' W 061°46'0 0.0
2014-Oct-24 17:33N 17°07' W 061°46'0 0.0
2014-Oct-24 16:33N 17°07' W 061°46'0 0.0
2014-Oct-24 15:33N 17°07' W 061°46'0 0.0
2014-Oct-24 14:33N 17°07' W 061°46'0 0.3
2014-Oct-24 13:33N 17°08' W 061°46'2 0.0
2014-Oct-22 22:28N 17°09' W 061°47'2 0.1
2014-Oct-21 22:33N 17°08' W 061°46'1 0.7
2014-Oct-21 21:33N 17°08' W 061°46'1 0.8
2014-Oct-21 20:33N 17°07' W 061°46'0 0.0
2014-Oct-21 19:33N 17°07' W 061°46'0 0.0
2014-Oct-21 18:33N 17°07' W 061°46'0 0.0
2014-Oct-21 17:33N 17°07' W 061°46'0 0.0
2014-Oct-21 16:33N 17°07' W 061°46'0 0.0
2014-Oct-21 15:33N 17°07' W 061°46'0 0.0
2014-Oct-21 14:33N 17°07' W 061°46'  
Track history (hours):
 
Tides and Currents Weather Stations Pressure Air Temp Water Temp Dewpoint Dewpoint Depression Visibility Wind Speed Wind Dir Waves Ship Positions

Janika

Last reported at 2014-Oct-30 21:18 UTC. Time now 2014-Nov-01 13:20 UTC.
Position N 17°10' W 061°47'.

; draft 2.6 m.

Type: Tug. MMSI: 305732000.

Date/timePositionNaut miles runAvg speedWind from/ knotsBaromVisibWave heightAir tempDewpointWater temp
2014-Oct-30 21:18N 17°10' W 061°47'3 3.6
2014-Oct-30 20:33N 17°07' W 061°46'0 0.0
2014-Oct-30 19:33N 17°07' W 061°46'0 0.0
2014-Oct-30 18:33N 17°07' W 061°46'0 0.0
2014-Oct-30 17:33N 17°07' W 061°46'  
2014-Oct-25 14:33N 17°08' W 061°46'1 0.7
2014-Oct-25 13:34N 17°07' W 061°46'0 0.0
2014-Oct-25 12:33N 17°07' W 061°46'0 0.0
2014-Oct-25 11:33N 17°07' W 061°46'0 0.0
2014-Oct-25 10:34N 17°07' W 061°46'0 0.0
2014-Oct-25 09:33N 17°07' W 061°46'0 0.0
2014-Oct-25 08:34N 17°07' W 061°46'0 0.0
2014-Oct-25 07:33N 17°07' W 061°46'0 0.0
2014-Oct-25 06:33N 17°07' W 061°46'0 0.0
2014-Oct-25 05:33N 17°07' W 061°46'0 0.0
2014-Oct-25 04:33N 17°07' W 061°46'0 0.0
2014-Oct-25 03:33N 17°07' W 061°46'0 0.0
2014-Oct-25 02:33N 17°07' W 061°46'0 0.0
2014-Oct-25 01:33N 17°07' W 061°46'0 0.0
2014-Oct-25 00:33N 17°07' W 061°46'0 0.0
2014-Oct-24 23:33N 17°07' W 061°46'0 0.0
2014-Oct-24 22:33N 17°07' W 061°46'0 0.0
2014-Oct-24 21:33N 17°07' W 061°46'0 0.0
2014-Oct-24 20:33N 17°07' W 061°46'0 0.0
2014-Oct-24 19:33N 17°07' W 061°46'0 0.0
2014-Oct-24 18:33N 17°07' W 061°46'0 0.0
2014-Oct-24 17:33N 17°07' W 061°46'0 0.0
2014-Oct-24 16:33N 17°07' W 061°46'0 0.0
2014-Oct-24 15:33N 17°07' W 061°46'0 0.0
2014-Oct-24 14:33N 17°07' W 061°46'0 0.3
2014-Oct-24 13:33N 17°08' W 061°46'2 0.0
2014-Oct-22 22:28N 17°09' W 061°47'2 0.1
2014-Oct-21 22:33N 17°08' W 061°46'1 0.7
2014-Oct-21 21:33N 17°08' W 061°46'1 0.8
2014-Oct-21 20:33N 17°07' W 061°46'0 0.0
2014-Oct-21 19:33N 17°07' W 061°46'0 0.0
2014-Oct-21 18:33N 17°07' W 061°46'0 0.0
2014-Oct-21 17:33N 17°07' W 061°46'0 0.0
2014-Oct-21 16:33N 17°07' W 061°46'0 0.0
2014-Oct-21 15:33N 17°07' W 061°46'0 0.0
2014-Oct-21 14:33N 17°07' W 061°46'  

Dump ship's entire track history